sensor_id;sensor_type;location;lat;lon;timestamp;temperature;humidity
70294;DHT22;72548;48.884;2.334;2023-11-22T20:57:17;17.94;82.66
70294;DHT22;74367;35.280;-77.632;2023-11-22T20:59:43;17.77;84.01
70294;DHT22;74367;35.280;-77.632;2023-11-22T21:02:09;17.50;87.41
70294;DHT22;74367;35.280;-77.632;2023-11-22T21:04:36;17.15;88.07
70294;DHT22;74367;35.280;-77.632;2023-11-22T21:07:02;17.16;89.52
70294;DHT22;74367;35.280;-77.632;2023-11-22T21:09:28;16.96;91.31
70294;DHT22;74367;35.280;-77.632;2023-11-22T21:11:54;16.70;88.50
70294;DHT22;74367;35.280;-77.632;2023-11-22T21:14:21;16.67;90.75
70294;DHT22;74367;35.280;-77.632;2023-11-22T21:16:47;16.56;93.16
70294;DHT22;74367;35.280;-77.632;2023-11-22T21:19:13;16.59;92.77
70294;DHT22;74367;35.280;-77.632;2023-11-22T21:21:40;16.54;93.19
70294;DHT22;74367;35.280;-77.632;2023-11-22T21:24:06;16.39;90.31
70294;DHT22;74367;35.280;-77.632;2023-11-22T21:26:33;16.33;91.18
70294;DHT22;74367;35.280;-77.632;2023-11-22T21:28:59;16.39;94.19
70294;DHT22;74367;35.280;-77.632;2023-11-22T21:31:25;16.54;94.13
70294;DHT22;74367;35.280;-77.632;2023-11-22T21:33:50;16.34;91.89
70294;DHT22;74367;35.280;-77.632;2023-11-22T21:36:17;16.40;93.63
70294;DHT22;74367;35.280;-77.632;2023-11-22T21:38:43;16.29;92.93
70294;DHT22;74367;35.280;-77.632;2023-11-22T21:41:10;16.20;93.10
70294;DHT22;74367;35.280;-77.632;2023-11-22T21:43:38;16.02;91.67
70294;DHT22;74367;35.280;-77.632;2023-11-22T21:46:06;16.06;93.20
70294;DHT22;74367;35.280;-77.632;2023-11-22T21:48:35;15.91;92.37
70294;DHT22;74367;35.280;-77.632;2023-11-22T21:51:01;15.93;91.90
70294;DHT22;74367;35.280;-77.632;2023-11-22T21:53:28;15.66;92.28
70294;DHT22;74367;35.280;-77.632;2023-11-22T21:55:55;15.57;91.48
70294;DHT22;74367;35.280;-77.632;2023-11-22T21:58:21;15.44;93.40
70294;DHT22;74367;35.280;-77.632;2023-11-22T22:00:47;15.42;91.29
70294;DHT22;74367;35.280;-77.632;2023-11-22T22:03:19;15.26;93.38
70294;DHT22;74367;35.280;-77.632;2023-11-22T22:05:45;15.23;95.02
70294;DHT22;74367;35.280;-77.632;2023-11-22T22:08:15;15.17;94.38
70294;DHT22;74367;35.280;-77.632;2023-11-22T22:10:41;15.02;94.79
70294;DHT22;74367;35.280;-77.632;2023-11-22T22:13:08;14.96;93.91
70294;DHT22;74367;35.280;-77.632;2023-11-22T22:15:35;14.96;96.14
70294;DHT22;74367;35.280;-77.632;2023-11-22T22:18:01;15.00;96.27
70294;DHT22;74367;35.280;-77.632;2023-11-22T22:20:27;15.07;96.15
70294;DHT22;74367;35.280;-77.632;2023-11-22T22:22:53;15.14;96.68
70294;DHT22;74367;35.280;-77.632;2023-11-22T22:25:19;15.11;95.89
70294;DHT22;74367;35.280;-77.632;2023-11-22T22:27:47;14.99;94.17
70294;DHT22;74367;35.280;-77.632;2023-11-22T22:30:13;14.94;93.05
70294;DHT22;74367;35.280;-77.632;2023-11-22T22:32:39;15.07;96.57
70294;DHT22;74367;35.280;-77.632;2023-11-22T22:35:06;14.90;94.35
70294;DHT22;74367;35.280;-77.632;2023-11-22T22:37:32;14.82;94.85
70294;DHT22;74367;35.280;-77.632;2023-11-22T22:39:57;14.59;94.34
70294;DHT22;74367;35.280;-77.632;2023-11-22T22:42:25;14.38;95.27
70294;DHT22;74367;35.280;-77.632;2023-11-22T22:44:51;14.18;95.37
70294;DHT22;74367;35.280;-77.632;2023-11-22T22:47:17;14.21;96.02
70294;DHT22;74367;35.280;-77.632;2023-11-22T22:49:43;14.21;96.16
70294;DHT22;74367;35.280;-77.632;2023-11-22T22:52:10;14.26;97.14
70294;DHT22;74367;35.280;-77.632;2023-11-22T22:54:36;14.15;95.61
70294;DHT22;74367;35.280;-77.632;2023-11-22T22:57:02;14.29;97.16
70294;DHT22;74367;35.280;-77.632;2023-11-22T22:59:28;14.21;95.01
70294;DHT22;74367;35.280;-77.632;2023-11-22T23:01:54;14.32;97.32
70294;DHT22;74367;35.280;-77.632;2023-11-22T23:04:22;14.31;96.50
70294;DHT22;74367;35.280;-77.632;2023-11-22T23:06:48;14.52;97.05
70294;DHT22;74367;35.280;-77.632;2023-11-22T23:09:16;14.35;96.89
70294;DHT22;74367;35.280;-77.632;2023-11-22T23:11:43;14.24;95.24
70294;DHT22;74367;35.280;-77.632;2023-11-22T23:14:09;14.13;95.36
70294;DHT22;74367;35.280;-77.632;2023-11-22T23:16:35;14.21;96.68
70294;DHT22;74367;35.280;-77.632;2023-11-22T23:19:01;14.07;95.14
70294;DHT22;74367;35.280;-77.632;2023-11-22T23:21:28;14.20;96.83
70294;DHT22;74367;35.280;-77.632;2023-11-22T23:23:54;14.51;97.93
70294;DHT22;74367;35.280;-77.632;2023-11-22T23:26:21;14.36;97.50
70294;DHT22;74367;35.280;-77.632;2023-11-22T23:28:51;14.00;95.55
70294;DHT22;74367;35.280;-77.632;2023-11-22T23:31:18;13.86;96.44
70294;DHT22;74367;35.280;-77.632;2023-11-22T23:33:44;13.83;97.12
70294;DHT22;74367;35.280;-77.632;2023-11-22T23:36:14;13.74;96.78
70294;DHT22;74367;35.280;-77.632;2023-11-22T23:38:40;14.01;96.92
70294;DHT22;74367;35.280;-77.632;2023-11-22T23:41:06;13.87;96.27
70294;DHT22;74367;35.280;-77.632;2023-11-22T23:43:33;14.01;97.15
70294;DHT22;74367;35.280;-77.632;2023-11-22T23:46:02;14.11;97.51
70294;DHT22;74367;35.280;-77.632;2023-11-22T23:48:30;14.21;97.81
70294;DHT22;74367;35.280;-77.632;2023-11-22T23:50:56;14.21;96.98
70294;DHT22;74367;35.280;-77.632;2023-11-22T23:53:22;14.29;97.25
70294;DHT22;74367;35.280;-77.632;2023-11-22T23:55:48;14.17;96.68
70294;DHT22;74367;35.280;-77.632;2023-11-22T23:58:14;14.26;96.92
